Time;durP1;ratioP1;P1;durP2;ratioP2;P2;SDS_P1;SDS_P2;PMS_P1;PMS_P2;Temp;Humidity;BMP_temperature;BMP_pressure;BME280_temperature;BME280_humidity;BME280_pressure;Samples;Min_cycle;Max_cycle;Signal;HPM_P1;HPM_P2
2021/08/31 00:01:49;;;;;;;8.90;7.47;;;;;;;15.53;78.32;100627.88;4882493;28;126761;-61
2021/08/31 00:04:15;;;;;;;11.63;8.40;;;;;;;15.55;78.36;100633.00;4884853;28;99108;-61
2021/08/31 00:06:41;;;;;;;10.20;7.97;;;;;;;15.54;78.34;100634.91;4884286;28;126260;-61
2021/08/31 00:09:07;;;;;;;9.68;7.75;;;;;;;15.52;77.81;100628.94;4892598;28;123159;-61
2021/08/31 00:11:35;;;;;;;9.60;7.53;;;;;;;15.51;77.95;100631.97;4896802;28;99055;-61
2021/08/31 00:14:01;;;;;;;10.85;7.43;;;;;;;15.48;77.90;100630.66;4904024;28;97807;-61
2021/08/31 00:16:27;;;;;;;10.35;7.68;;;;;;;15.48;77.93;100636.09;4901163;28;127695;-65
2021/08/31 00:18:53;;;;;;;10.02;7.63;;;;;;;15.46;78.14;100641.81;4901735;28;121643;-65
2021/08/31 00:21:19;;;;;;;8.18;7.32;;;;;;;15.47;78.17;100645.34;4884340;28;128132;-61
2021/08/31 00:23:45;;;;;;;9.30;7.90;;;;;;;15.46;78.55;100649.16;4891803;28;128151;-61
2021/08/31 00:26:11;;;;;;;13.48;8.50;;;;;;;15.45;78.14;100648.38;4899212;28;126888;-61
2021/08/31 00:28:37;;;;;;;9.02;8.13;;;;;;;15.46;78.06;100649.97;4898305;28;122582;-61
2021/08/31 00:31:03;;;;;;;10.65;8.85;;;;;;;15.45;78.00;100647.56;4880876;28;113760;-61
2021/08/31 00:33:29;;;;;;;9.57;8.48;;;;;;;15.45;77.94;100648.38;4883290;28;127982;-65
2021/08/31 00:35:57;;;;;;;12.85;8.65;;;;;;;15.44;77.85;100646.75;4893632;28;126904;-61
2021/08/31 00:38:23;;;;;;;10.85;8.27;;;;;;;15.41;78.02;100652.78;4883883;28;97908;-65
2021/08/31 00:40:49;;;;;;;10.80;8.13;;;;;;;15.42;78.13;100653.56;4891259;28;99029;-61
2021/08/31 00:43:18;;;;;;;12.63;8.50;;;;;;;15.37;77.89;100659.91;4901570;28;127180;-61
2021/08/31 00:45:44;;;;;;;11.80;8.90;;;;;;;15.37;78.34;100659.09;4881722;28;98627;-61
2021/08/31 00:48:10;;;;;;;11.13;8.75;;;;;;;15.37;77.71;100668.03;4880576;28;98214;-65
2021/08/31 00:50:36;;;;;;;13.23;7.95;;;;;;;15.35;77.74;100662.09;4883575;28;127824;-61
2021/08/31 00:53:02;;;;;;;11.25;8.05;;;;;;;15.33;77.97;100666.22;4896423;28;111575;-61
2021/08/31 00:55:28;;;;;;;8.50;7.55;;;;;;;15.30;77.81;100666.81;4896496;28;106602;-65
2021/08/31 00:57:54;;;;;;;11.65;8.27;;;;;;;15.29;78.35;100671.44;4915721;28;122234;-65
2021/08/31 01:00:21;;;;;;;10.57;7.90;;;;;;;15.28;78.37;100669.78;4901463;28;99275;-61
2021/08/31 01:02:47;;;;;;;10.65;8.57;;;;;;;15.29;77.82;100671.44;4901603;28;98492;-65
2021/08/31 01:05:13;;;;;;;11.38;8.20;;;;;;;15.30;77.90;100673.03;4885052;28;125244;-61
2021/08/31 01:07:41;;;;;;;9.70;8.60;;;;;;;15.28;77.98;100675.22;4881916;28;107658;-65
2021/08/31 01:10:09;;;;;;;9.50;8.48;;;;;;;15.31;78.20;100681.97;4900392;28;99920;-61
2021/08/31 01:12:35;;;;;;;10.95;9.30;;;;;;;15.30;77.55;100689.31;4901646;28;97953;-66
2021/08/31 01:15:01;;;;;;;9.68;8.68;;;;;;;15.30;77.89;100686.63;4900854;28;97853;-65
2021/08/31 01:17:31;;;;;;;11.88;8.68;;;;;;;15.29;77.79;100676.84;4900257;28;98073;-65
2021/08/31 01:19:59;;;;;;;10.15;8.52;;;;;;;15.24;77.80;100682.34;4891824;28;98549;-62
2021/08/31 01:22:25;;;;;;;12.35;9.57;;;;;;;15.22;77.46;100692.69;4882362;28;98347;-65
2021/08/31 01:25:01;;;;;;;12.15;9.88;;;;;;;15.17;77.63;100684.63;4875634;28;127762;-61
2021/08/31 01:27:27;;;;;;;12.57;9.80;;;;;;;15.18;77.72;100687.03;4881115;28;98131;-61
2021/08/31 01:29:55;;;;;;;11.70;10.48;;;;;;;15.16;77.89;100691.16;4881739;28;128715;-61
2021/08/31 01:32:21;;;;;;;14.00;9.65;;;;;;;15.15;77.63;100682.19;4881266;28;115783;-65
2021/08/31 01:34:48;;;;;;;12.43;10.38;;;;;;;15.16;77.50;100691.16;4883890;28;127245;-65
2021/08/31 01:37:14;;;;;;;12.82;10.68;;;;;;;15.15;77.89;100694.97;4899043;28;97915;-65
2021/08/31 01:39:40;;;;;;;11.82;10.45;;;;;;;15.14;77.56;100691.44;4900788;28;116605;-66
2021/08/31 01:42:06;;;;;;;14.45;11.00;;;;;;;15.14;77.98;100694.16;4883424;28;99087;-61
2021/08/31 01:44:32;;;;;;;11.82;10.57;;;;;;;15.14;77.80;100699.59;4882275;28;97779;-61
2021/08/31 01:46:58;;;;;;;13.88;11.45;;;;;;;15.14;77.61;100699.59;4883934;28;108320;-61
2021/08/31 01:49:24;;;;;;;11.50;10.30;;;;;;;15.14;78.12;100698.78;4882559;28;125941;-65
2021/08/31 01:51:50;;;;;;;11.82;10.27;;;;;;;15.14;77.90;100701.50;4900461;28;126188;-61
2021/08/31 01:54:16;;;;;;;13.20;10.60;;;;;;;15.15;77.85;100701.19;4900456;28;124945;-65
2021/08/31 01:56:42;;;;;;;12.27;10.57;;;;;;;15.16;77.59;100704.72;4901053;28;97969;-61
2021/08/31 01:59:09;;;;;;;15.13;11.45;;;;;;;15.17;77.98;100706.34;4892021;28;127940;-61
2021/08/31 02:01:35;;;;;;;15.73;11.88;;;;;;;15.17;77.53;100693.59;4880123;28;127829;-65
2021/08/31 02:04:01;;;;;;;12.63;11.30;;;;;;;15.18;77.92;100697.09;4886879;28;98711;-65
2021/08/31 02:06:27;;;;;;;12.77;10.70;;;;;;;15.18;77.58;100705.25;4899331;28;97908;-65
2021/08/31 02:08:53;;;;;;;14.30;11.25;;;;;;;15.17;77.87;100699.00;4900180;28;127926;-64
2021/08/31 02:11:19;;;;;;;13.90;11.52;;;;;;;15.18;77.81;100694.38;4899964;28;125771;-65
2021/08/31 02:13:45;;;;;;;12.75;11.20;;;;;;;15.20;77.79;100697.59;4898120;28;127384;-64
2021/08/31 02:16:12;;;;;;;13.82;11.13;;;;;;;15.20;77.90;100684.84;4894079;28;121672;-65
2021/08/31 02:18:39;;;;;;;14.02;10.52;;;;;;;15.19;77.68;100687.84;4881747;28;98708;-65
2021/08/31 02:21:09;;;;;;;13.13;10.70;;;;;;;15.20;77.45;100701.13;4880474;28;98853;-65
2021/08/31 02:23:38;;;;;;;13.57;11.50;;;;;;;15.19;77.47;100696.00;4881259;28;113589;-65
2021/08/31 02:26:04;;;;;;;13.27;10.98;;;;;;;15.21;77.57;100696.53;4862701;28;123634;-61
2021/08/31 02:28:30;;;;;;;13.30;10.63;;;;;;;15.21;78.03;100700.03;4878295;28;128149;-61
2021/08/31 02:30:56;;;;;;;13.77;10.95;;;;;;;15.23;77.53;100699.75;4880911;28;126205;-65
2021/08/31 02:33:22;;;;;;;14.02;10.77;;;;;;;15.22;77.63;100698.94;4880368;28;127632;-61
2021/08/31 02:35:49;;;;;;;13.50;10.95;;;;;;;15.22;77.91;100698.94;4881354;28;123231;-61
2021/08/31 02:38:15;;;;;;;12.00;10.45;;;;;;;15.22;77.92;100693.50;4880382;28;128302;-65
2021/08/31 02:40:41;;;;;;;12.00;10.27;;;;;;;15.22;77.72;100698.13;4880219;28;128659;-65
2021/08/31 02:43:07;;;;;;;12.82;10.00;;;;;;;15.21;77.30;100702.75;4878630;28;127463;-65
2021/08/31 02:45:33;;;;;;;13.43;10.45;;;;;;;15.21;77.81;100691.09;4883185;28;122590;-65
2021/08/31 02:47:59;;;;;;;12.63;10.45;;;;;;;15.20;77.79;100695.69;4880312;28;127746;-61
2021/08/31 02:50:25;;;;;;;12.13;10.18;;;;;;;15.20;77.92;100694.88;4880301;28;127935;-65
2021/08/31 02:52:51;;;;;;;14.55;10.48;;;;;;;15.20;77.91;100700.31;4879409;28;99997;-61
2021/08/31 02:55:17;;;;;;;13.27;10.00;;;;;;;15.20;77.79;100703.03;4895268;28;121398;-65
2021/08/31 02:57:43;;;;;;;13.60;9.45;;;;;;;15.19;77.58;100702.22;4914976;28;98563;-65
2021/08/31 03:00:17;;;;;;;12.43;9.98;;;;;;;15.18;77.54;100708.78;4898903;28;103497;-65
2021/08/31 03:02:43;;;;;;;14.82;10.25;;;;;;;15.18;77.88;100707.97;4900509;28;97853;-61
2021/08/31 03:05:10;;;;;;;13.70;9.85;;;;;;;15.19;77.80;100709.56;4898564;28;98182;-61
2021/08/31 03:07:36;;;;;;;11.70;9.85;;;;;;;15.18;77.34;100710.69;4899838;28;114753;-61
2021/08/31 03:10:02;;;;;;;13.57;9.43;;;;;;;15.18;77.33;100708.78;4899405;28;126762;-65
2021/08/31 03:12:28;;;;;;;15.55;9.80;;;;;;;15.18;78.08;100705.25;4896301;28;126253;-65
2021/08/31 03:14:54;;;;;;;12.95;9.65;;;;;;;15.18;77.60;100710.69;4891968;28;121083;-65
2021/08/31 03:17:20;;;;;;;12.32;9.60;;;;;;;15.21;77.80;100705.47;4899426;28;119593;-65
2021/08/31 03:19:46;;;;;;;11.48;9.10;;;;;;;15.28;77.87;100707.81;4898541;28;127800;-61
2021/08/31 03:22:12;;;;;;;12.38;9.88;;;;;;;15.33;77.38;100709.66;4899223;28;126228;-65
2021/08/31 03:24:38;;;;;;;11.70;8.88;;;;;;;15.38;77.58;100715.03;4900121;28;97858;-65
2021/08/31 03:27:05;;;;;;;12.63;9.50;;;;;;;15.41;77.40;100714.44;4899900;28;99337;-61
2021/08/31 03:29:32;;;;;;;12.80;9.30;;;;;;;15.44;77.41;100725.53;4899386;28;99428;-65
2021/08/31 03:31:58;;;;;;;12.40;9.85;;;;;;;15.47;77.02;100724.13;4899766;28;98010;-65
2021/08/31 03:34:24;;;;;;;14.45;9.70;;;;;;;15.50;77.24;100723.53;4898955;28;121719;-65
2021/08/31 03:36:50;;;;;;;11.70;9.35;;;;;;;15.51;77.25;100719.72;4872463;28;125096;-65
2021/08/31 03:39:16;;;;;;;10.85;8.52;;;;;;;15.54;77.02;100731.91;4881736;28;98212;-65
2021/08/31 03:41:42;;;;;;;12.55;9.65;;;;;;;15.55;77.08;100731.59;4884844;28;127944;-61
2021/08/31 03:44:08;;;;;;;12.40;9.35;;;;;;;15.56;76.97;100732.41;4879339;28;122945;-61
2021/08/31 03:46:34;;;;;;;14.25;9.70;;;;;;;15.58;77.09;100735.66;4879584;28;128778;-65
2021/08/31 03:49:01;;;;;;;14.15;10.02;;;;;;;15.59;77.05;100740.78;4880382;28;97768;-65
2021/08/31 03:51:27;;;;;;;13.43;9.20;;;;;;;15.60;76.75;100738.88;4896714;28;121940;-60
2021/08/31 03:53:53;;;;;;;12.20;9.35;;;;;;;15.59;76.74;100739.97;4897123;28;112093;-65
2021/08/31 03:56:19;;;;;;;12.18;8.82;;;;;;;15.58;76.96;100741.88;4898000;28;128461;-65
2021/08/31 03:58:45;;;;;;;11.43;8.57;;;;;;;15.59;76.14;100748.13;4900019;28;101051;-65
2021/08/31 04:01:11;;;;;;;11.10;8.48;;;;;;;15.56;76.42;100749.53;4882844;28;120241;-65
2021/08/31 04:03:37;;;;;;;12.05;9.10;;;;;;;15.56;76.42;100746.00;4894300;28;98060;-65
2021/08/31 04:06:03;;;;;;;11.55;8.85;;;;;;;15.55;76.53;100745.19;4898157;28;126662;-65
2021/08/31 04:08:29;;;;;;;11.98;8.70;;;;;;;15.53;76.28;100746.59;4899053;28;127948;-65
2021/08/31 04:10:55;;;;;;;13.18;9.40;;;;;;;15.52;76.79;100753.91;4882396;28;127590;-61
2021/08/31 04:13:21;;;;;;;11.90;8.65;;;;;;;15.51;76.53;100746.06;4879867;28;121733;-65
2021/08/31 04:15:48;;;;;;;10.15;8.45;;;;;;;15.52;76.79;100748.47;4879254;28;124589;-61
2021/08/31 04:18:14;;;;;;;10.80;9.02;;;;;;;15.52;76.44;100755.81;4880439;28;101717;-65
2021/08/31 04:20:40;;;;;;;11.45;9.68;;;;;;;15.51;76.52;100749.59;4896328;28;126669;-65
2021/08/31 04:23:06;;;;;;;12.10;9.07;;;;;;;15.50;77.09;100744.47;4884098;28;121464;-65
2021/08/31 04:25:32;;;;;;;12.20;8.95;;;;;;;15.50;76.25;100753.41;4883790;28;103894;-65
2021/08/31 04:27:58;;;;;;;11.43;9.45;;;;;;;15.50;76.98;100755.34;4900820;28;129056;-65
2021/08/31 04:30:24;;;;;;;11.98;9.52;;;;;;;15.49;76.46;100751.00;4883182;28;127086;-61
2021/08/31 04:32:50;;;;;;;10.90;8.45;;;;;;;15.48;76.58;100750.16;4901661;28;122773;-61
2021/08/31 04:35:16;;;;;;;11.95;9.38;;;;;;;15.49;76.47;100756.44;4913343;28;126755;-61
2021/08/31 04:37:43;;;;;;;11.65;9.38;;;;;;;15.47;76.94;100756.72;4891796;28;126687;-61
2021/08/31 04:40:09;;;;;;;12.00;9.52;;;;;;;15.44;76.91;100758.13;4882918;28;128403;-66
2021/08/31 04:42:35;;;;;;;12.05;9.13;;;;;;;15.42;76.69;100759.50;4882749;28;107245;-61
2021/08/31 04:45:01;;;;;;;11.88;9.35;;;;;;;15.38;76.76;100759.28;4883074;28;125974;-65
2021/08/31 04:47:28;;;;;;;12.57;9.35;;;;;;;15.37;76.72;100765.03;4881959;28;118817;-65
2021/08/31 04:49:54;;;;;;;15.52;10.20;;;;;;;15.36;76.92;100772.34;4888636;28;116171;-61
2021/08/31 04:52:20;;;;;;;11.68;8.80;;;;;;;15.36;76.88;100766.91;4878643;28;121055;-61
2021/08/31 04:54:46;;;;;;;12.00;9.20;;;;;;;15.37;76.61;100773.97;4880437;28;98414;-61
2021/08/31 04:57:12;;;;;;;12.68;9.30;;;;;;;15.37;76.93;100770.44;4878246;28;129101;-65
2021/08/31 04:59:38;;;;;;;11.88;9.20;;;;;;;15.36;76.61;100769.63;4876798;28;127400;-65
2021/08/31 05:02:04;;;;;;;12.77;8.80;;;;;;;15.35;76.77;100767.19;4879145;28;97916;-61
2021/08/31 05:04:32;;;;;;;10.35;9.23;;;;;;;15.35;76.74;100767.19;4883689;28;99200;-65
2021/08/31 05:06:58;;;;;;;12.20;9.77;;;;;;;15.36;77.08;100769.63;4885255;28;98586;-61
2021/08/31 05:09:24;;;;;;;13.55;9.32;;;;;;;15.39;77.14;100771.75;4878894;28;98193;-66
2021/08/31 05:11:50;;;;;;;13.32;10.20;;;;;;;15.41;76.86;100776.91;4878808;28;121227;-61
2021/08/31 05:14:16;;;;;;;11.35;9.38;;;;;;;15.42;77.11;100779.31;4883849;28;126782;-60
2021/08/31 05:16:42;;;;;;;14.50;9.93;;;;;;;15.43;77.09;100771.97;4877859;28;128624;-65
2021/08/31 05:19:08;;;;;;;12.60;10.10;;;;;;;15.44;76.56;100779.03;4876598;28;127231;-60
2021/08/31 05:21:34;;;;;;;14.73;10.82;;;;;;;15.41;77.13;100774.19;4878594;28;111148;-60
2021/08/31 05:24:01;;;;;;;11.57;10.02;;;;;;;15.40;76.67;100783.44;4879163;28;128479;-65
2021/08/31 05:26:27;;;;;;;13.45;9.85;;;;;;;15.40;77.23;100791.56;4878648;28;101314;-61
2021/08/31 05:28:53;;;;;;;13.73;9.82;;;;;;;15.39;76.68;100781.81;4878238;28;127820;-61
2021/08/31 05:31:19;;;;;;;10.88;9.05;;;;;;;15.38;77.07;100780.22;4878068;28;122932;-61
2021/08/31 05:33:45;;;;;;;12.52;9.98;;;;;;;15.39;77.35;100773.66;4878121;28;125624;-66
2021/08/31 05:36:12;;;;;;;14.27;10.02;;;;;;;15.40;76.77;100778.00;4879061;28;98736;-65
2021/08/31 05:38:38;;;;;;;13.27;9.00;;;;;;;15.39;76.95;100782.63;4878518;28;97838;-61
2021/08/31 05:41:04;;;;;;;10.27;9.20;;;;;;;15.40;76.97;100775.28;4877926;28;123294;-65
2021/08/31 05:43:30;;;;;;;11.80;9.30;;;;;;;15.42;76.96;100779.31;4886217;28;127385;-61
2021/08/31 05:45:56;;;;;;;12.48;9.35;;;;;;;15.44;76.97;100779.84;4883498;28;99104;-65
2021/08/31 05:48:22;;;;;;;13.02;9.70;;;;;;;15.46;77.24;100782.28;4878066;28;125380;-65
2021/08/31 05:50:48;;;;;;;12.40;10.10;;;;;;;15.49;76.92;100775.44;4879994;28;97962;-66
2021/08/31 05:53:14;;;;;;;11.93;9.60;;;;;;;15.51;77.06;100778.66;4887202;28;127793;-65
2021/08/31 05:55:41;;;;;;;12.88;9.45;;;;;;;15.52;76.90;100778.38;4893420;28;98411;-61
2021/08/31 05:58:08;;;;;;;11.00;8.98;;;;;;;15.54;76.68;100780.81;4876749;28;98139;-65
2021/08/31 06:00:34;;;;;;;12.20;9.55;;;;;;;15.58;76.73;100781.84;4877529;28;122334;-65
2021/08/31 06:03:00;;;;;;;14.20;9.02;;;;;;;15.59;76.58;100780.72;4877557;28;127465;-61
2021/08/31 06:05:26;;;;;;;11.95;8.70;;;;;;;15.60;76.36;100783.19;4877561;28;116256;-61
2021/08/31 06:07:52;;;;;;;11.63;9.00;;;;;;;15.61;76.59;100786.69;4884035;28;126314;-61
2021/08/31 06:10:18;;;;;;;10.65;8.73;;;;;;;15.59;76.22;100786.97;4894312;28;122305;-61
2021/08/31 06:12:44;;;;;;;11.68;9.35;;;;;;;15.58;76.40;100790.00;4881756;28;99138;-66
2021/08/31 06:15:11;;;;;;;11.48;9.10;;;;;;;15.57;76.48;100793.81;4882471;28;128203;-65
2021/08/31 06:17:38;;;;;;;10.30;7.97;;;;;;;15.58;76.36;100788.06;4878533;28;113928;-65
2021/08/31 06:20:08;;;;;;;9.98;8.38;;;;;;;15.58;76.35;100788.06;4889905;28;97887;-61
2021/08/31 06:22:35;;;;;;;9.00;8.10;;;;;;;15.56;76.30;100793.00;4881684;28;98563;-61
2021/08/31 06:25:01;;;;;;;9.00;7.75;;;;;;;15.53;76.65;100796.31;4882151;28;97901;-66
2021/08/31 06:27:27;;;;;;;10.63;7.80;;;;;;;15.48;76.57;100801.78;4880154;28;125734;-61
2021/08/31 06:29:54;;;;;;;9.40;7.72;;;;;;;15.45;77.16;100799.69;4888476;28;122482;-65
2021/08/31 06:32:20;;;;;;;8.95;8.02;;;;;;;15.43;77.26;100805.38;4887384;28;99043;-61
2021/08/31 06:34:46;;;;;;;9.93;8.00;;;;;;;15.41;77.03;100804.06;4899365;28;128074;-61
2021/08/31 06:37:12;;;;;;;11.65;8.40;;;;;;;15.38;76.75;100797.31;4897023;28;126621;-61
2021/08/31 06:39:38;;;;;;;9.52;7.75;;;;;;;15.38;77.19;100810.09;4898173;28;122941;-61
2021/08/31 06:42:04;;;;;;;9.20;7.47;;;;;;;15.38;77.20;100813.59;4897089;28;127644;-61
2021/08/31 06:44:30;;;;;;;11.32;8.50;;;;;;;15.40;77.30;100813.31;4899386;28;128227;-66
2021/08/31 06:46:56;;;;;;;11.30;8.38;;;;;;;15.39;77.11;100817.13;4897773;28;119121;-61
2021/08/31 06:49:23;;;;;;;10.38;8.45;;;;;;;15.36;77.26;100815.78;4900426;28;97922;-62
2021/08/31 06:51:49;;;;;;;16.40;10.77;;;;;;;15.40;77.86;100816.03;4897880;28;98290;-63
2021/08/31 06:54:15;;;;;;;11.95;10.02;;;;;;;15.47;77.41;100816.47;4905748;28;128266;-63
2021/08/31 06:56:41;;;;;;;10.88;9.38;;;;;;;15.53;77.29;100825.38;4880544;28;97892;-62
2021/08/31 06:59:07;;;;;;;14.15;9.70;;;;;;;15.54;77.26;100825.09;4882006;28;98064;-62
2021/08/31 07:01:35;;;;;;;12.88;10.20;;;;;;;15.54;77.63;100840.56;4879526;28;129473;-62
2021/08/31 07:04:01;;;;;;;12.43;9.98;;;;;;;15.53;77.52;100841.69;4895266;28;99396;-68
2021/08/31 07:06:27;;;;;;;13.02;10.55;;;;;;;15.54;77.68;100852.25;4880928;28;98204;-62
2021/08/31 07:08:53;;;;;;;15.30;11.18;;;;;;;15.53;77.51;100845.22;4880405;28;123357;-67
2021/08/31 07:11:19;;;;;;;16.63;12.27;;;;;;;15.53;77.32;100850.63;4890062;28;98167;-67
2021/08/31 07:13:45;;;;;;;11.88;10.43;;;;;;;15.51;77.14;100844.69;4891185;28;128715;-62
2021/08/31 07:16:11;;;;;;;12.65;10.43;;;;;;;15.52;77.69;100842.75;4880399;28;97978;-68
2021/08/31 07:18:37;;;;;;;13.90;10.15;;;;;;;15.49;77.14;100843.38;4883785;28;97778;-62
2021/08/31 07:21:03;;;;;;;10.73;9.55;;;;;;;15.47;77.52;100839.00;4898638;28;127052;-62
2021/08/31 07:23:29;;;;;;;13.50;9.95;;;;;;;15.47;77.77;100843.63;4898176;28;128231;-68
2021/08/31 07:25:55;;;;;;;12.48;10.35;;;;;;;15.45;77.55;100841.22;4898871;28;127752;-68
2021/08/31 07:28:21;;;;;;;12.65;10.60;;;;;;;15.50;76.86;100839.53;4898804;28;122545;-62
2021/08/31 07:30:47;;;;;;;11.98;8.77;;;;;;;15.52;76.89;100843.56;4887240;28;98152;-68
2021/08/31 07:33:13;;;;;;;12.02;10.05;;;;;;;15.55;77.75;100842.19;4899981;28;98449;-62
2021/08/31 07:35:39;;;;;;;11.20;9.95;;;;;;;15.57;77.18;100848.16;4899457;28;124634;-69
2021/08/31 07:38:06;;;;;;;12.48;9.57;;;;;;;15.59;77.04;100841.31;4899993;28;97836;-68
2021/08/31 07:40:32;;;;;;;10.90;9.80;;;;;;;15.58;77.21;100844.31;4889248;28;98371;-68
2021/08/31 07:42:58;;;;;;;13.95;11.30;;;;;;;15.61;77.27;100857.34;4878418;28;108106;-68
2021/08/31 07:45:24;;;;;;;12.90;10.32;;;;;;;15.64;77.37;100845.84;4898735;28;126237;-68
2021/08/31 07:47:51;;;;;;;12.60;9.80;;;;;;;15.63;76.95;100853.22;4893162;28;123027;-62
2021/08/31 07:50:17;;;;;;;13.57;11.70;;;;;;;15.67;76.97;100856.19;4888274;28;98423;-68
2021/08/31 07:52:43;;;;;;;15.55;11.90;;;;;;;15.71;77.09;100860.75;4897816;28;106023;-62
2021/08/31 07:55:10;;;;;;;18.70;14.00;;;;;;;15.75;77.50;100858.25;4896111;28;127049;-62
2021/08/31 07:57:36;;;;;;;13.18;11.05;;;;;;;15.78;76.82;100873.97;4883702;28;97709;-62
2021/08/31 08:00:05;;;;;;;11.57;9.80;;;;;;;15.85;76.47;100876.34;4884731;28;114695;-69
2021/08/31 08:02:33;;;;;;;12.40;9.75;;;;;;;15.90;76.53;100878.97;4882515;28;120553;-62
2021/08/31 08:05:01;;;;;;;10.80;8.77;;;;;;;15.92;76.36;100882.22;4884066;28;98556;-62
2021/08/31 08:07:27;;;;;;;10.05;8.45;;;;;;;15.94;76.27;100880.81;4887105;28;111589;-62
2021/08/31 08:09:53;;;;;;;12.35;8.45;;;;;;;15.97;76.37;100881.34;4902002;28;97974;-69
2021/08/31 08:12:20;;;;;;;9.13;7.75;;;;;;;15.98;75.93;100894.63;4898559;28;117229;-62
2021/08/31 08:14:49;;;;;;;11.15;8.35;;;;;;;15.98;76.09;100880.25;4884608;28;98195;-62
2021/08/31 08:17:19;;;;;;;9.95;7.88;;;;;;;15.92;76.33;100891.19;4882629;28;97811;-68
2021/08/31 08:19:45;;;;;;;10.45;8.50;;;;;;;15.92;76.34;100893.91;4883513;28;98250;-61
2021/08/31 08:22:12;;;;;;;9.48;8.50;;;;;;;15.98;76.46;100893.84;4911246;28;98099;-62
2021/08/31 08:24:38;;;;;;;10.75;8.27;;;;;;;15.97;76.39;100887.59;4891425;28;98128;-62
2021/08/31 08:27:05;;;;;;;8.73;7.82;;;;;;;15.95;76.16;100900.66;4883042;28;110358;-69
2021/08/31 08:29:31;;;;;;;8.68;7.78;;;;;;;15.91;76.58;100889.56;4881735;28;115521;-62
2021/08/31 08:31:57;;;;;;;9.50;8.60;;;;;;;15.93;76.80;100892.81;4882287;28;98385;-69
2021/08/31 08:34:23;;;;;;;8.52;7.65;;;;;;;16.00;76.67;100886.22;4880685;28;127619;-62
2021/08/31 08:36:50;;;;;;;7.70;6.97;;;;;;;16.09;76.32;100893.41;4895736;28;97950;-69
2021/08/31 08:39:16;;;;;;;8.70;6.72;;;;;;;16.18;76.09;100891.63;4902241;28;98489;-62
2021/08/31 08:41:42;;;;;;;7.57;5.78;;;;;;;16.23;75.95;100893.47;4883028;28;127872;-63
2021/08/31 08:44:08;;;;;;;7.18;6.38;;;;;;;16.21;75.88;100890.25;4882573;28;98087;-62
2021/08/31 08:46:35;;;;;;;6.70;6.10;;;;;;;16.22;75.97;100897.28;4882451;28;122024;-63
2021/08/31 08:49:01;;;;;;;7.57;6.50;;;;;;;16.26;76.07;100898.31;4881611;28;98760;-63
2021/08/31 08:51:27;;;;;;;6.60;6.00;;;;;;;16.27;76.24;100899.94;4865038;28;99334;-68
2021/08/31 08:53:53;;;;;;;6.82;6.18;;;;;;;16.29;75.93;100900.44;4884126;28;98474;-63
2021/08/31 08:56:20;;;;;;;6.30;5.70;;;;;;;16.28;76.00;100901.56;4882412;28;97908;-69
2021/08/31 08:58:47;;;;;;;6.40;5.68;;;;;;;16.31;75.97;100902.88;4885700;28;98968;-69
2021/08/31 09:01:13;;;;;;;7.70;6.70;;;;;;;16.29;76.14;100900.44;4888402;28;99122;-69
2021/08/31 09:03:42;;;;;;;8.10;6.60;;;;;;;16.32;76.04;100901.78;4882708;28;98634;-63
2021/08/31 09:06:17;;;;;;;8.13;6.05;;;;;;;16.37;75.74;100904.41;4901528;28;97661;-64
2021/08/31 09:08:54;;;;;;;7.43;6.55;;;;;;;16.34;76.16;100907.72;4901881;28;98206;-63
2021/08/31 09:11:27;;;;;;;7.97;6.85;;;;;;;16.35;76.05;100912.09;4901937;28;98940;-63
2021/08/31 09:14:17;;;;;;;7.82;7.07;;;;;;;16.35;75.86;100914.81;4900387;28;97997;-69
2021/08/31 09:16:45;;;;;;;8.48;7.50;;;;;;;16.29;75.99;100915.97;4901451;28;97698;-63
2021/08/31 09:19:12;;;;;;;15.13;7.88;;;;;;;16.26;75.83;100924.72;4898435;28;99122;-69
2021/08/31 09:21:38;;;;;;;9.52;8.57;;;;;;;16.22;76.23;100920.97;4901082;28;98180;-63
2021/08/31 09:24:04;;;;;;;9.20;8.07;;;;;;;16.23;75.91;100926.13;4899522;28;126495;-63
2021/08/31 09:26:37;;;;;;;9.10;8.20;;;;;;;16.28;76.00;100919.78;4900654;28;122063;-63
2021/08/31 09:29:18;;;;;;;9.02;8.13;;;;;;;16.36;75.97;100921.84;4901700;28;99234;-69
2021/08/31 09:31:51;;;;;;;9.70;8.70;;;;;;;16.50;75.75;100927.34;4901004;28;99269;-69
2021/08/31 09:34:43;;;;;;;10.50;8.52;;;;;;;16.72;75.20;100932.19;4899456;28;98076;-69
2021/08/31 09:37:48;;;;;;;10.90;8.93;;;;;;;16.87;74.95;100932.75;4891261;28;98089;-63
2021/08/31 09:40:17;;;;;;;10.20;8.57;;;;;;;16.87;75.03;100930.03;4881673;28;99085;-69
2021/08/31 09:43:04;;;;;;;10.23;9.15;;;;;;;16.97;74.93;100925.50;4884468;28;99011;-63
2021/08/31 09:45:37;;;;;;;9.23;8.32;;;;;;;17.14;74.20;100932.03;4898592;28;98114;-69
2021/08/31 09:48:06;;;;;;;10.10;9.10;;;;;;;17.29;74.00;100930.94;4902178;28;98487;-63
2021/08/31 09:50:44;;;;;;;11.30;8.98;;;;;;;17.39;73.89;100933.47;4892915;28;101936;-69
2021/08/31 09:53:20;;;;;;;10.02;8.80;;;;;;;17.49;73.77;100929.75;4898317;28;97852;-63
2021/08/31 09:55:51;;;;;;;10.65;8.82;;;;;;;17.49;73.69;100931.63;4896753;28;98976;-63
2021/08/31 09:58:22;;;;;;;9.17;8.07;;;;;;;17.37;73.53;100941.13;4901002;28;98046;-63
2021/08/31 10:00:49;;;;;;;9.98;8.50;;;;;;;17.42;73.46;100934.78;4895571;28;98623;-70
2021/08/31 10:03:16;;;;;;;9.52;8.63;;;;;;;17.45;73.54;100934.19;4881879;28;98182;-63
2021/08/31 10:05:43;;;;;;;9.77;8.77;;;;;;;17.55;73.42;100942.16;4882016;28;97938;-69
2021/08/31 10:08:09;;;;;;;10.00;8.98;;;;;;;17.73;72.41;100936.91;4892954;28;97754;-70
2021/08/31 10:10:36;;;;;;;9.77;8.77;;;;;;;17.79;73.12;100944.69;4898257;28;97951;-70
2021/08/31 10:13:09;;;;;;;9.55;8.55;;;;;;;17.78;73.08;100945.81;4900533;28;98088;-63
2021/08/31 10:15:39;;;;;;;;;;;;;;;17.88;73.10;100944.78;4899258;28;118007;-70
2021/08/31 10:18:05;;;;;;;10.95;8.45;;;;;;;17.74;73.39;100946.69;4899922;28;97948;-70
2021/08/31 10:20:31;;;;;;;10.05;8.73;;;;;;;17.73;73.05;100940.44;4900519;28;98005;-70
2021/08/31 10:22:57;;;;;;;10.90;8.27;;;;;;;17.69;73.26;100946.81;4914477;28;99247;-63
2021/08/31 10:25:25;;;;;;;10.23;8.98;;;;;;;17.66;73.20;100949.00;4900383;28;97863;-69
2021/08/31 10:27:53;;;;;;;10.13;8.65;;;;;;;17.66;73.01;100946.28;4901124;28;98010;-63
2021/08/31 10:30:21;;;;;;;10.25;8.77;;;;;;;17.63;73.03;100952.34;4892710;28;98556;-63
2021/08/31 10:32:58;;;;;;;10.68;8.55;;;;;;;17.62;72.87;100947.22;4881330;28;98842;-69
2021/08/31 10:37:57;;;;;;;10.50;8.88;;;;;;;17.61;73.12;100954.56;4880468;28;97631;-63
2021/08/31 10:40:40;;;;;;;10.52;9.05;;;;;;;17.79;72.76;100958.31;4898105;28;113529;-63
2021/08/31 10:43:19;;;;;;;10.80;8.73;;;;;;;17.85;72.13;100954.41;4898497;28;98584;-63
2021/08/31 10:46:06;;;;;;;10.55;8.90;;;;;;;17.93;72.25;100961.06;4896634;28;112749;-63
2021/08/31 10:48:35;;;;;;;9.80;8.80;;;;;;;17.97;72.40;100964.78;4880565;28;122373;-70
2021/08/31 10:51:10;;;;;;;9.80;8.57;;;;;;;18.08;71.58;100965.38;4862519;28;98133;-70
2021/08/31 10:53:49;;;;;;;11.13;8.90;;;;;;;18.33;71.26;100958.56;4886392;28;98070;-70
2021/08/31 10:56:25;;;;;;;11.43;8.80;;;;;;;18.65;70.58;100960.25;4897985;28;98064;-70
2021/08/31 10:58:59;;;;;;;9.48;7.82;;;;;;;19.77;67.46;100954.66;4898580;28;97774;-69
2021/08/31 11:01:37;;;;;;;8.55;7.55;;;;;;;20.37;67.03;100950.41;4899263;28;98141;-64
2021/08/31 11:04:24;;;;;;;10.63;7.22;;;;;;;20.28;67.04;100957.81;4899797;28;98928;-63
2021/08/31 11:06:57;;;;;;;10.20;7.47;;;;;;;20.38;66.30;100959.44;4896200;28;98388;-63
2021/08/31 11:09:23;;;;;;;9.18;7.18;;;;;;;20.28;66.22;100966.03;4894308;28;97904;-63
2021/08/31 11:12:03;;;;;;;9.27;7.93;;;;;;;19.94;67.72;100966.78;4879024;28;98166;-63
2021/08/31 11:14:56;;;;;;;7.97;7.05;;;;;;;19.69;67.99;100973.75;4903861;28;98518;-63
2021/08/31 11:17:37;;;;;;;7.47;6.82;;;;;;;19.46;68.30;100973.00;4900056;28;98594;-63
2021/08/31 11:20:45;;;;;;;8.00;7.20;;;;;;;19.40;67.90;100977.00;4900287;28;98011;-70